Time;durP1;ratioP1;P1;durP2;ratioP2;P2;SDS_P1;SDS_P2;PMS_P1;PMS_P2;Temp;Humidity;BMP_temperature;BMP_pressure;BME280_temperature;BME280_humidity;BME280_pressure;Samples;Min_cycle;Max_cycle;Signal;HPM_P1;HPM_P2
2022/12/31 05:01:32;;;;;;;1999.90;999.90;;;;;;;;;;5664319;23;20238;-68
2022/12/31 05:04:17;;;;;;;1999.90;999.90;;;;;;;;;;4974859;28;20691;-68
2022/12/31 05:07:02;;;;;;;1999.90;999.90;;;;;;;;;;4975483;28;20293;-68
2022/12/31 05:09:47;;;;;;;1999.90;999.90;;;;;;;;;;4975308;28;20209;-69
2022/12/31 05:12:31;;;;;;;1999.90;999.90;;;;;;;;;;4957524;28;20238;-68
2022/12/31 05:15:16;;;;;;;1999.90;999.90;;;;;;;;;;4956238;29;20282;-68
2022/12/31 05:18:03;;;;;;;1999.90;999.90;;;;;;;;;;4956245;29;20268;-69
2022/12/31 05:20:48;;;;;;;1999.90;999.90;;;;;;;;;;4956144;28;20593;-69
2022/12/31 05:23:33;;;;;;;1999.90;999.90;;;;;;;;;;4955436;29;20522;-69
2022/12/31 05:26:18;;;;;;;1999.90;999.90;;;;;;;;;;4955926;29;20218;-68
2022/12/31 05:29:03;;;;;;;1999.90;999.90;;;;;;;;;;4956263;29;20310;-69
2022/12/31 05:31:48;;;;;;;1999.90;999.90;;;;;;;;;;4955672;28;20226;-68
2022/12/31 05:34:34;;;;;;;1999.90;999.90;;;;;;;;;;4955868;29;20213;-68
2022/12/31 05:37:19;;;;;;;1999.90;999.90;;;;;;;;;;4955868;29;20214;-69
2022/12/31 05:40:04;;;;;;;1999.90;999.90;;;;;;;;;;4955775;29;20245;-70
2022/12/31 05:42:50;;;;;;;1999.90;999.90;;;;;;;;;;4955571;29;20698;-68
2022/12/31 05:45:35;;;;;;;1999.90;999.90;;;;;;;;;;4955499;29;20222;-68
2022/12/31 05:48:20;;;;;;;1999.90;999.90;;;;;;;;;;4955717;29;20219;-68
2022/12/31 05:51:06;;;;;;;1999.90;999.90;;;;;;;;;;4955176;28;20321;-69
2022/12/31 05:53:51;;;;;;;1999.90;999.90;;;;;;;;;;4955671;29;20591;-68
2022/12/31 05:56:36;;;;;;;1999.90;999.90;;;;;;;;;;4955355;29;20275;-67
2022/12/31 05:59:21;;;;;;;1999.90;999.90;;;;;;;;;;4955494;29;20255;-68
2022/12/31 06:02:06;;;;;;;1999.90;999.90;;;;;;;;;;4955101;28;20226;-68
2022/12/31 06:04:51;;;;;;;1999.90;999.90;;;;;;;;;;4955025;29;20341;-68
2022/12/31 06:07:37;;;;;;;1999.90;999.90;;;;;;;;;;4955266;29;20215;-69
2022/12/31 06:10:22;;;;;;;1999.90;999.90;;;;;;;;;;4954901;28;20226;-69
2022/12/31 06:13:07;;;;;;;1999.90;999.90;;;;;;;;;;4955186;29;20564;-68
2022/12/31 06:15:52;;;;;;;1999.90;999.90;;;;;;;;;;4954851;29;20213;-69
2022/12/31 06:18:37;;;;;;;1999.90;999.90;;;;;;;;;;4954833;29;20212;-69
2022/12/31 06:21:22;;;;;;;1999.90;999.90;;;;;;;;;;4954723;28;20313;-68
2022/12/31 06:24:08;;;;;;;1999.90;999.90;;;;;;;;;;4954876;29;20210;-70
2022/12/31 06:26:53;;;;;;;1999.90;999.90;;;;;;;;;;4955095;29;20213;-68
2022/12/31 06:29:39;;;;;;;1999.90;999.90;;;;;;;;;;4954916;29;20215;-70
2022/12/31 06:32:23;;;;;;;1999.90;999.90;;;;;;;;;;4954478;28;20258;-68
2022/12/31 06:35:10;;;;;;;1999.90;999.90;;;;;;;;;;4954461;29;20689;-68
2022/12/31 06:37:55;;;;;;;1999.90;999.90;;;;;;;;;;4954897;29;20228;-68
2022/12/31 06:40:41;;;;;;;1999.90;999.90;;;;;;;;;;4954547;28;20230;-68
2022/12/31 06:43:26;;;;;;;1999.90;999.90;;;;;;;;;;4954394;29;20199;-69
2022/12/31 06:46:12;;;;;;;1999.90;999.90;;;;;;;;;;4954379;29;20214;-68
2022/12/31 06:48:57;;;;;;;1999.90;999.90;;;;;;;;;;4954674;29;20211;-68
2022/12/31 06:51:44;;;;;;;1999.90;999.90;;;;;;;;;;4954536;28;20241;-68
2022/12/31 06:54:29;;;;;;;1999.90;999.90;;;;;;;;;;4953978;29;20210;-68
2022/12/31 06:57:16;;;;;;;1999.90;999.90;;;;;;;;;;4954359;29;20214;-70
2022/12/31 07:00:01;;;;;;;1999.90;999.90;;;;;;;;;;4954624;29;20243;-68
2022/12/31 07:03:05;;;;;;;1999.90;999.90;;;;;;;;;;4953538;28;20687;-69
2022/12/31 07:05:52;;;;;;;1999.90;999.90;;;;;;;;;;4954086;29;20341;-69
2022/12/31 07:08:44;;;;;;;1999.90;999.90;;;;;;;;;;4952985;29;20448;-70
2022/12/31 07:11:34;;;;;;;1999.90;999.90;;;;;;;;;;4954024;28;20222;-69
2022/12/31 07:14:25;;;;;;;1999.90;999.90;;;;;;;;;;4954150;29;20592;-68
2022/12/31 07:17:21;;;;;;;1999.90;999.90;;;;;;;;;;4954196;29;20215;-68
2022/12/31 07:20:09;;;;;;;1999.90;999.90;;;;;;;;;;4953466;29;20215;-69
2022/12/31 07:22:54;;;;;;;1999.90;999.90;;;;;;;;;;4934985;29;20216;-69
2022/12/31 07:25:41;;;;;;;1999.90;999.90;;;;;;;;;;4944513;29;20679;-69
2022/12/31 07:28:36;;;;;;;1999.90;999.90;;;;;;;;;;4953779;29;20239;-68
2022/12/31 07:31:30;;;;;;;1999.90;999.90;;;;;;;;;;4953894;28;20223;-69
2022/12/31 07:34:19;;;;;;;1999.90;999.90;;;;;;;;;;4953793;29;20399;-68
2022/12/31 07:37:07;;;;;;;1999.90;999.90;;;;;;;;;;4953909;29;20211;-70
2022/12/31 07:39:58;;;;;;;1999.90;999.90;;;;;;;;;;4954118;29;20207;-70
2022/12/31 07:42:58;;;;;;;1999.90;999.90;;;;;;;;;;4953693;28;20751;-69
2022/12/31 07:45:47;;;;;;;1999.90;999.90;;;;;;;;;;4953530;29;20730;-68
2022/12/31 07:48:33;;;;;;;1999.90;999.90;;;;;;;;;;4954024;29;20215;-69
2022/12/31 07:51:19;;;;;;;1999.90;999.90;;;;;;;;;;4934266;29;20331;-67
2022/12/31 07:54:04;;;;;;;1999.90;999.90;;;;;;;;;;4934755;29;20216;-68
2022/12/31 07:56:49;;;;;;;1999.90;999.90;;;;;;;;;;4934835;29;20289;-69
2022/12/31 07:59:41;;;;;;;1999.90;999.90;;;;;;;;;;4934708;29;20216;-69
2022/12/31 08:02:35;;;;;;;1999.90;999.90;;;;;;;;;;4961865;28;20388;-71
2022/12/31 08:05:25;;;;;;;1999.90;999.90;;;;;;;;;;4965583;28;20701;-69
2022/12/31 08:08:18;;;;;;;1999.90;999.90;;;;;;;;;;4949585;29;20256;-67
2022/12/31 08:11:10;;;;;;;1999.90;999.90;;;;;;;;;;4952637;28;20260;-67
2022/12/31 08:13:56;;;;;;;1999.90;999.90;;;;;;;;;;4955171;28;20714;-69
2022/12/31 08:16:42;;;;;;;1999.90;999.90;;;;;;;;;;4955687;29;20234;-70
2022/12/31 08:19:29;;;;;;;1999.90;999.90;;;;;;;;;;4955683;29;20335;-71
2022/12/31 08:22:29;;;;;;;1999.90;999.90;;;;;;;;;;4955288;28;20417;-70
2022/12/31 08:25:18;;;;;;;1999.90;999.90;;;;;;;;;;4952405;29;20279;-71
2022/12/31 08:28:08;;;;;;;1999.90;999.90;;;;;;;;;;4954080;29;20266;-70
2022/12/31 08:30:57;;;;;;;1999.90;999.90;;;;;;;;;;4955682;28;20231;-71
2022/12/31 08:33:46;;;;;;;1999.90;999.90;;;;;;;;;;4955033;29;20235;-69
2022/12/31 08:36:35;;;;;;;1999.90;999.90;;;;;;;;;;4955456;29;20293;-66
2022/12/31 08:39:27;;;;;;;1999.90;999.90;;;;;;;;;;4955087;29;20219;-68
2022/12/31 08:42:19;;;;;;;1999.90;999.90;;;;;;;;;;4954162;28;20226;-70
2022/12/31 08:45:08;;;;;;;1999.90;999.90;;;;;;;;;;4955414;29;20228;-72
2022/12/31 08:47:57;;;;;;;1999.90;999.90;;;;;;;;;;4955430;29;20586;-68
2022/12/31 08:50:42;;;;;;;1999.90;999.90;;;;;;;;;;4954164;28;20754;-73
2022/12/31 08:53:27;;;;;;;1999.90;999.90;;;;;;;;;;4952931;28;20238;-69
2022/12/31 08:56:15;;;;;;;1999.90;999.90;;;;;;;;;;4954662;29;20293;-70
2022/12/31 08:59:14;;;;;;;1999.90;999.90;;;;;;;;;;4956224;29;20308;-69
2022/12/31 09:02:20;;;;;;;1999.90;999.90;;;;;;;;;;4954178;28;20310;-69
2022/12/31 09:05:09;;;;;;;1999.90;999.90;;;;;;;;;;4955660;29;20344;-68
2022/12/31 09:08:02;;;;;;;1999.90;999.90;;;;;;;;;;4937098;29;20341;-69
2022/12/31 09:10:51;;;;;;;1999.90;999.90;;;;;;;;;;4954622;28;20324;-69
2022/12/31 09:13:51;;;;;;;1999.90;999.90;;;;;;;;;;4955428;29;20609;-69
2022/12/31 09:16:40;;;;;;;1999.90;999.90;;;;;;;;;;4955364;29;20343;-70
2022/12/31 09:19:26;;;;;;;1999.90;999.90;;;;;;;;;;4936991;29;20220;-70
2022/12/31 09:22:11;;;;;;;1999.90;999.90;;;;;;;;;;4955392;28;20236;-70
2022/12/31 09:24:57;;;;;;;1999.90;999.90;;;;;;;;;;4954731;28;20320;-72
2022/12/31 09:27:46;;;;;;;1999.90;999.90;;;;;;;;;;4955021;29;20202;-71
2022/12/31 09:30:34;;;;;;;1999.90;999.90;;;;;;;;;;4949343;28;20607;-70
2022/12/31 09:33:26;;;;;;;1999.90;999.90;;;;;;;;;;4936558;29;20702;-71
2022/12/31 09:36:16;;;;;;;1999.90;999.90;;;;;;;;;;4945889;29;20710;-71
2022/12/31 09:39:08;;;;;;;1999.90;999.90;;;;;;;;;;4955917;29;20283;-71
2022/12/31 09:42:12;;;;;;;1999.90;999.90;;;;;;;;;;4936279;29;20599;-72
2022/12/31 09:45:18;;;;;;;1999.90;999.90;;;;;;;;;;4940910;29;20254;-70
2022/12/31 09:48:24;;;;;;;1999.90;999.90;;;;;;;;;;4948808;29;20225;-72
2022/12/31 09:51:16;;;;;;;1999.90;999.90;;;;;;;;;;4938336;28;20249;-71
2022/12/31 09:54:31;;;;;;;1999.90;999.90;;;;;;;;;;4954628;29;20232;-70
2022/12/31 09:57:31;;;;;;;1999.90;999.90;;;;;;;;;;4895900;29;20218;-70
2022/12/31 10:00:20;;;;;;;1999.90;999.90;;;;;;;;;;4968961;28;20211;-70
2022/12/31 10:03:16;;;;;;;1999.90;999.90;;;;;;;;;;4955257;29;20211;-71
2022/12/31 10:06:11;;;;;;;1999.90;999.90;;;;;;;;;;4954381;28;20215;-72
2022/12/31 10:09:20;;;;;;;1999.90;999.90;;;;;;;;;;4944289;29;20217;-68
2022/12/31 10:12:12;;;;;;;1999.90;999.90;;;;;;;;;;4972668;28;20739;-68
2022/12/31 10:15:05;;;;;;;1999.90;999.90;;;;;;;;;;4965650;28;20706;-70
2022/12/31 10:17:54;;;;;;;1999.90;999.90;;;;;;;;;;4955012;29;20208;-68
2022/12/31 10:20:45;;;;;;;1999.90;999.90;;;;;;;;;;4954585;28;20239;-69
2022/12/31 10:23:51;;;;;;;1999.90;999.90;;;;;;;;;;4949431;28;20229;-68
2022/12/31 10:26:41;;;;;;;1999.90;999.90;;;;;;;;;;4936000;29;20482;-69
2022/12/31 10:29:34;;;;;;;1999.90;999.90;;;;;;;;;;4954927;29;20216;-69
2022/12/31 10:32:20;;;;;;;1999.90;999.90;;;;;;;;;;4953409;28;20295;-69
2022/12/31 10:35:13;;;;;;;1999.90;999.90;;;;;;;;;;4954502;29;20211;-69
2022/12/31 10:38:03;;;;;;;1999.90;999.90;;;;;;;;;;4953322;28;20212;-68
2022/12/31 10:41:05;;;;;;;1999.90;999.90;;;;;;;;;;4954354;28;20251;-68
2022/12/31 10:44:03;;;;;;;1999.90;999.90;;;;;;;;;;4954461;29;20209;-70
2022/12/31 10:47:00;;;;;;;1999.90;999.90;;;;;;;;;;4954385;29;20204;-69
2022/12/31 10:50:01;;;;;;;1999.90;999.90;;;;;;;;;;4954718;29;20211;-69
2022/12/31 10:53:01;;;;;;;1999.90;999.90;;;;;;;;;;4954400;29;20224;-69
2022/12/31 10:55:56;;;;;;;1999.90;999.90;;;;;;;;;;4953544;29;20396;-69
2022/12/31 10:58:47;;;;;;;1999.90;999.90;;;;;;;;;;4954080;28;20284;-69
2022/12/31 11:01:41;;;;;;;1999.90;999.90;;;;;;;;;;4947823;28;20737;-68
2022/12/31 11:04:45;;;;;;;1999.90;999.90;;;;;;;;;;4953942;28;20430;-69
2022/12/31 11:07:35;;;;;;;1999.90;999.90;;;;;;;;;;4953917;28;20263;-66
2022/12/31 11:10:46;;;;;;;1999.90;999.90;;;;;;;;;;4954397;28;20269;-69
2022/12/31 11:13:46;;;;;;;1999.90;999.90;;;;;;;;;;4935607;28;20220;-68
2022/12/31 11:16:47;;;;;;;1999.90;999.90;;;;;;;;;;4953730;28;20275;-69
2022/12/31 11:19:35;;;;;;;1999.90;999.90;;;;;;;;;;4939718;29;20209;-66
2022/12/31 11:22:29;;;;;;;1999.90;999.90;;;;;;;;;;4953514;28;20227;-68
2022/12/31 11:25:21;;;;;;;1999.90;999.90;;;;;;;;;;4953680;29;20212;-69
2022/12/31 11:28:22;;;;;;;1999.90;999.90;;;;;;;;;;4934905;29;20715;-69
2022/12/31 11:31:34;;;;;;;1999.90;999.90;;;;;;;;;;4949333;28;20356;-69
2022/12/31 11:34:36;;;;;;;1999.90;999.90;;;;;;;;;;4926250;29;20243;-70
2022/12/31 11:37:30;;;;;;;1999.90;999.90;;;;;;;;;;4953849;29;20218;-69
2022/12/31 11:40:21;;;;;;;1999.90;999.90;;;;;;;;;;4953921;29;20284;-70
2022/12/31 11:43:12;;;;;;;1999.90;999.90;;;;;;;;;;4953809;29;20314;-69
2022/12/31 11:46:18;;;;;;;1999.90;999.90;;;;;;;;;;4953352;29;20219;-71
2022/12/31 11:49:12;;;;;;;1999.90;999.90;;;;;;;;;;4956359;28;20219;-71
2022/12/31 11:52:10;;;;;;;1999.90;999.90;;;;;;;;;;4957581;28;20303;-70
2022/12/31 11:55:03;;;;;;;1999.90;999.90;;;;;;;;;;4957237;28;20570;-68
2022/12/31 11:57:49;;;;;;;1999.90;999.90;;;;;;;;;;4957465;28;20619;-69
2022/12/31 12:00:34;;;;;;;1999.90;999.90;;;;;;;;;;4957041;28;20216;-72
2022/12/31 12:03:20;;;;;;;1999.90;999.90;;;;;;;;;;4957067;28;20542;-68
2022/12/31 12:06:06;;;;;;;1999.90;999.90;;;;;;;;;;4962666;28;20203;-71
2022/12/31 12:08:55;;;;;;;1999.90;999.90;;;;;;;;;;4960309;28;20688;-70
2022/12/31 12:11:40;;;;;;;1999.90;999.90;;;;;;;;;;4960469;28;20236;-71
2022/12/31 12:14:31;;;;;;;1999.90;999.90;;;;;;;;;;4972016;28;20243;-68
2022/12/31 12:17:17;;;;;;;1999.90;999.90;;;;;;;;;;4976250;28;20336;-71
2022/12/31 12:20:03;;;;;;;1999.90;999.90;;;;;;;;;;4941973;29;20354;-72
2022/12/31 12:22:48;;;;;;;1999.90;999.90;;;;;;;;;;4955225;29;20754;-71
2022/12/31 12:25:38;;;;;;;1999.90;999.90;;;;;;;;;;4956719;29;20324;-71
2022/12/31 12:28:24;;;;;;;1999.90;999.90;;;;;;;;;;4956220;29;20765;-72
2022/12/31 12:31:17;;;;;;;1999.90;999.90;;;;;;;;;;4956137;28;20232;-71
2022/12/31 12:34:03;;;;;;;1999.90;999.90;;;;;;;;;;4937549;29;20774;-70
2022/12/31 12:36:48;;;;;;;1999.90;999.90;;;;;;;;;;4954232;29;20287;-70
2022/12/31 12:39:34;;;;;;;1999.90;999.90;;;;;;;;;;4956597;29;20216;-71
2022/12/31 12:42:20;;;;;;;1999.90;999.90;;;;;;;;;;4956311;28;20287;-70
2022/12/31 12:45:07;;;;;;;1999.90;999.90;;;;;;;;;;4953405;29;20204;-71
2022/12/31 12:47:55;;;;;;;1999.90;999.90;;;;;;;;;;4955362;29;20213;-71
2022/12/31 12:50:43;;;;;;;1999.90;999.90;;;;;;;;;;4956686;28;20229;-71
2022/12/31 12:53:33;;;;;;;1999.90;999.90;;;;;;;;;;4956069;28;20228;-71
2022/12/31 12:56:23;;;;;;;1999.90;999.90;;;;;;;;;;4956219;29;20312;-71
2022/12/31 12:59:23;;;;;;;1999.90;999.90;;;;;;;;;;4955654;28;20225;-71
2022/12/31 13:02:18;;;;;;;1999.90;999.90;;;;;;;;;;4951133;28;20716;-72
2022/12/31 13:05:10;;;;;;;1999.90;999.90;;;;;;;;;;4956262;29;20412;-71
2022/12/31 13:07:59;;;;;;;1999.90;999.90;;;;;;;;;;4956381;29;20575;-70
2022/12/31 13:10:58;;;;;;;1999.90;999.90;;;;;;;;;;4956288;28;20268;-71
2022/12/31 13:13:47;;;;;;;1999.90;999.90;;;;;;;;;;4956121;29;20721;-71
2022/12/31 13:16:34;;;;;;;1999.90;999.90;;;;;;;;;;4955988;29;20567;-71
2022/12/31 13:19:28;;;;;;;1999.90;999.90;;;;;;;;;;4956232;29;20288;-71
2022/12/31 13:22:16;;;;;;;1999.90;999.90;;;;;;;;;;4956156;28;20597;-71
2022/12/31 13:25:06;;;;;;;1999.90;999.90;;;;;;;;;;4955548;29;20224;-71
2022/12/31 13:27:52;;;;;;;1999.90;999.90;;;;;;;;;;4956175;29;20573;-71
2022/12/31 13:30:38;;;;;;;1999.90;999.90;;;;;;;;;;4955964;28;20699;-71
2022/12/31 13:33:25;;;;;;;1999.90;999.90;;;;;;;;;;4956147;29;20235;-71
2022/12/31 13:36:15;;;;;;;1999.90;999.90;;;;;;;;;;4954816;29;20490;-70
2022/12/31 13:39:01;;;;;;;1999.90;999.90;;;;;;;;;;4955859;29;20212;-71
2022/12/31 13:41:49;;;;;;;1999.90;999.90;;;;;;;;;;4955459;28;20228;-71
2022/12/31 13:44:36;;;;;;;1999.90;999.90;;;;;;;;;;4955510;29;20197;-71
2022/12/31 13:47:24;;;;;;;1999.90;999.90;;;;;;;;;;4955998;29;20222;-70
2022/12/31 13:50:14;;;;;;;1999.90;999.90;;;;;;;;;;4955750;29;20248;-71
2022/12/31 13:53:05;;;;;;;1999.90;999.90;;;;;;;;;;4955580;29;20213;-70
2022/12/31 13:55:56;;;;;;;1999.90;999.90;;;;;;;;;;4955045;29;20443;-71
2022/12/31 13:58:44;;;;;;;1999.90;999.90;;;;;;;;;;4955498;29;20248;-71
2022/12/31 14:01:32;;;;;;;1999.90;999.90;;;;;;;;;;4955530;28;20236;-71
2022/12/31 14:04:21;;;;;;;1999.90;999.90;;;;;;;;;;4955107;29;20220;-72
2022/12/31 14:07:09;;;;;;;1999.90;999.90;;;;;;;;;;4955354;29;20276;-71
2022/12/31 14:09:55;;;;;;;1999.90;999.90;;;;;;;;;;4955465;29;20209;-71
2022/12/31 14:12:46;;;;;;;1999.90;999.90;;;;;;;;;;4955092;28;20248;-71
2022/12/31 14:15:35;;;;;;;1999.90;999.90;;;;;;;;;;4954856;29;20336;-70
2022/12/31 14:18:23;;;;;;;1999.90;999.90;;;;;;;;;;4955110;29;20217;-71
2022/12/31 14:21:11;;;;;;;1999.90;999.90;;;;;;;;;;4955145;28;20357;-71
2022/12/31 14:23:59;;;;;;;1999.90;999.90;;;;;;;;;;4954993;29;20209;-71
2022/12/31 14:26:47;;;;;;;1999.90;999.90;;;;;;;;;;4954798;29;20212;-71
2022/12/31 14:29:35;;;;;;;1999.90;999.90;;;;;;;;;;4955172;29;20208;-71
2022/12/31 14:32:41;;;;;;;1999.90;999.90;;;;;;;;;;4954845;28;20733;-71
2022/12/31 14:35:34;;;;;;;1999.90;999.90;;;;;;;;;;4954187;29;20231;-71
2022/12/31 14:38:27;;;;;;;1999.90;999.90;;;;;;;;;;4954893;29;20582;-71
2022/12/31 14:41:20;;;;;;;1999.90;999.90;;;;;;;;;;4954626;28;20356;-70
2022/12/31 14:44:13;;;;;;;1999.90;999.90;;;;;;;;;;4954315;29;20236;-71
2022/12/31 14:47:03;;;;;;;1999.90;999.90;;;;;;;;;;4953827;29;20428;-71
2022/12/31 14:49:52;;;;;;;1999.90;999.90;;;;;;;;;;4954834;29;20269;-70
2022/12/31 14:52:48;;;;;;;1999.90;999.90;;;;;;;;;;4954481;28;20228;-70
2022/12/31 14:55:34;;;;;;;1999.90;999.90;;;;;;;;;;4954289;29;20279;-70
2022/12/31 14:58:20;;;;;;;1999.90;999.90;;;;;;;;;;4954430;29;20699;-69
2022/12/31 15:01:21;;;;;;;1999.90;999.90;;;;;;;;;;4954144;28;20236;-71
2022/12/31 15:04:13;;;;;;;1999.90;999.90;;;;;;;;;;4954277;29;20333;-70
2022/12/31 15:07:02;;;;;;;1999.90;999.90;;;;;;;;;;4954228;29;20256;-71
2022/12/31 15:09:51;;;;;;;1999.90;999.90;;;;;;;;;;4954201;29;20208;-71
2022/12/31 15:12:46;;;;;;;1999.90;999.90;;;;;;;;;;4954178;28;20248;-70
2022/12/31 15:15:42;;;;;;;1999.90;999.90;;;;;;;;;;4952660;29;20996;-71
2022/12/31 15:18:38;;;;;;;1999.90;999.90;;;;;;;;;;4953880;29;20252;-71
2022/12/31 15:21:30;;;;;;;1999.90;999.90;;;;;;;;;;4954015;28;20264;-70
2022/12/31 15:24:19;;;;;;;1999.90;999.90;;;;;;;;;;4953499;29;20274;-71
2022/12/31 15:27:06;;;;;;;1999.90;999.90;;;;;;;;;;4954068;29;20200;-71
2022/12/31 15:29:51;;;;;;;1999.90;999.90;;;;;;;;;;4953925;29;20680;-71
2022/12/31 15:32:39;;;;;;;1999.90;999.90;;;;;;;;;;4953903;28;20237;-71
2022/12/31 15:35:26;;;;;;;1999.90;999.90;;;;;;;;;;4953416;29;20304;-72
2022/12/31 15:38:19;;;;;;;1999.90;999.90;;;;;;;;;;4953815;29;20224;-71
2022/12/31 15:41:15;;;;;;;1999.90;999.90;;;;;;;;;;4953620;28;20231;-71
2022/12/31 15:44:01;;;;;;;1999.90;999.90;;;;;;;;;;4953848;29;20205;-71
2022/12/31 15:46:47;;;;;;;1999.90;999.90;;;;;;;;;;4953648;29;20303;-71
2022/12/31 15:49:35;;;;;;;1999.90;999.90;;;;;;;;;;4953955;29;20336;-71
2022/12/31 15:52:25;;;;;;;1999.90;999.90;;;;;;;;;;4953511;28;20249;-71
2022/12/31 15:55:19;;;;;;;1999.90;999.90;;;;;;;;;;4953291;29;20233;-71
2022/12/31 15:58:06;;;;;;;1999.90;999.90;;;;;;;;;;4953740;29;20208;-71
2022/12/31 16:00:57;;;;;;;1999.90;999.90;;;;;;;;;;4953514;28;20235;-71
2022/12/31 16:03:43;;;;;;;1999.90;999.90;;;;;;;;;;4953671;29;20755;-71
2022/12/31 16:06:29;;;;;;;1999.90;999.90;;;;;;;;;;4953562;29;20208;-71
2022/12/31 16:09:21;;;;;;;1999.90;999.90;;;;;;;;;;4953610;29;20204;-71
2022/12/31 16:12:09;;;;;;;1999.90;999.90;;;;;;;;;;4953851;28;20358;-70
2022/12/31 16:14:56;;;;;;;1999.90;999.90;;;;;;;;;;4953205;29;20307;-71
2022/12/31 16:17:41;;;;;;;1999.90;999.90;;;;;;;;;;4953557;29;20257;-72
2022/12/31 16:20:28;;;;;;;1999.90;999.90;;;;;;;;;;4953685;28;20227;-72
2022/12/31 16:23:20;;;;;;;1999.90;999.90;;;;;;;;;;4953583;29;20259;-69
2022/12/31 16:26:09;;;;;;;1999.90;999.90;;;;;;;;;;4953080;29;20409;-70
2022/12/31 16:28:58;;;;;;;1999.90;999.90;;;;;;;;;;4953526;29;20208;-71
2022/12/31 16:31:44;;;;;;;1999.90;999.90;;;;;;;;;;4953434;28;20279;-72
2022/12/31 16:34:35;;;;;;;1999.90;999.90;;;;;;;;;;4953353;28;20239;-72
2022/12/31 16:37:21;;;;;;;1999.90;999.90;;;;;;;;;;4957082;29;20212;-72
2022/12/31 16:40:08;;;;;;;1999.90;999.90;;;;;;;;;;4956947;29;20591;-69
2022/12/31 16:42:55;;;;;;;1999.90;999.90;;;;;;;;;;4956831;29;20211;-72
2022/12/31 16:45:40;;;;;;;1999.90;999.90;;;;;;;;;;4956538;29;20204;-71
2022/12/31 16:48:25;;;;;;;1999.90;999.90;;;;;;;;;;4956577;29;20209;-71
2022/12/31 16:51:13;;;;;;;1999.90;999.90;;;;;;;;;;4956299;28;20228;-71
2022/12/31 16:53:59;;;;;;;1999.90;999.90;;;;;;;;;;4956282;29;20512;-70
2022/12/31 16:56:44;;;;;;;1999.90;999.90;;;;;;;;;;4956681;29;20292;-71
2022/12/31 16:59:32;;;;;;;1999.90;999.90;;;;;;;;;;4956291;29;20219;-71
2022/12/31 17:02:20;;;;;;;1999.90;999.90;;;;;;;;;;4956313;28;20239;-72
2022/12/31 17:05:17;;;;;;;1999.90;999.90;;;;;;;;;;4956197;29;20332;-72
2022/12/31 17:08:14;;;;;;;1999.90;999.90;;;;;;;;;;4956401;29;20204;-71
2022/12/31 17:11:02;;;;;;;1999.90;999.90;;;;;;;;;;4956300;28;20355;-71
2022/12/31 17:13:52;;;;;;;1999.90;999.90;;;;;;;;;;4956259;29;20248;-71
2022/12/31 17:16:40;;;;;;;1999.90;999.90;;;;;;;;;;4956459;29;20212;-71
2022/12/31 17:19:32;;;;;;;1999.90;999.90;;;;;;;;;;4956234;29;20780;-71
2022/12/31 17:22:18;;;;;;;1999.90;999.90;;;;;;;;;;4956306;28;20590;-71
2022/12/31 17:25:05;;;;;;;1999.90;999.90;;;;;;;;;;4955846;29;20276;-71
2022/12/31 17:27:55;;;;;;;1999.90;999.90;;;;;;;;;;4956062;29;20632;-71
2022/12/31 17:30:40;;;;;;;1999.90;999.90;;;;;;;;;;4955889;28;20607;-72
2022/12/31 17:33:30;;;;;;;1999.90;999.90;;;;;;;;;;4956084;29;20208;-71
2022/12/31 17:36:20;;;;;;;1999.90;999.90;;;;;;;;;;4955431;29;20568;-71
2022/12/31 17:39:15;;;;;;;1999.90;999.90;;;;;;;;;;4956064;29;20664;-71
2022/12/31 17:42:01;;;;;;;1999.90;999.90;;;;;;;;;;4955912;28;20231;-71
2022/12/31 17:44:46;;;;;;;1999.90;999.90;;;;;;;;;;4955229;29;20256;-73
2022/12/31 17:47:33;;;;;;;1999.90;999.90;;;;;;;;;;4955632;29;20227;-72
2022/12/31 17:50:20;;;;;;;1999.90;999.90;;;;;;;;;;4956047;29;20211;-71
2022/12/31 17:53:08;;;;;;;1999.90;999.90;;;;;;;;;;4955718;29;20216;-71
2022/12/31 17:55:55;;;;;;;1999.90;999.90;;;;;;;;;;4954985;29;20770;-72
2022/12/31 17:58:43;;;;;;;1999.90;999.90;;;;;;;;;;4955518;29;20308;-72
2022/12/31 18:01:28;;;;;;;1999.90;999.90;;;;;;;;;;4955528;28;20239;-71
2022/12/31 18:04:13;;;;;;;1999.90;999.90;;;;;;;;;;4955166;29;20310;-72
2022/12/31 18:07:00;;;;;;;1999.90;999.90;;;;;;;;;;4954996;29;20421;-71
2022/12/31 18:09:45;;;;;;;1999.90;999.90;;;;;;;;;;4955351;29;20208;-72
2022/12/31 18:12:29;;;;;;;1999.90;999.90;;;;;;;;;;4955201;28;20276;-71
2022/12/31 18:15:15;;;;;;;1999.90;999.90;;;;;;;;;;4954776;29;20240;-71
2022/12/31 18:18:00;;;;;;;1999.90;999.90;;;;;;;;;;4955186;29;20225;-72
2022/12/31 18:20:46;;;;;;;1999.90;999.90;;;;;;;;;;4954965;28;20344;-72
2022/12/31 18:23:35;;;;;;;1999.90;999.90;;;;;;;;;;4955241;29;20299;-72
2022/12/31 18:26:20;;;;;;;1999.90;999.90;;;;;;;;;;4954921;29;20319;-72
2022/12/31 18:29:13;;;;;;;1999.90;999.90;;;;;;;;;;4954943;29;20204;-72
2022/12/31 18:31:58;;;;;;;1999.90;999.90;;;;;;;;;;4955117;28;20606;-70
2022/12/31 18:34:43;;;;;;;1999.90;999.90;;;;;;;;;;4953129;29;20456;-73
2022/12/31 18:37:28;;;;;;;1999.90;999.90;;;;;;;;;;4954767;29;20271;-71
2022/12/31 18:40:15;;;;;;;1999.90;999.90;;;;;;;;;;4954463;29;20603;-72
2022/12/31 18:43:00;;;;;;;1999.90;999.90;;;;;;;;;;4954694;29;20212;-72
2022/12/31 18:45:45;;;;;;;1999.90;999.90;;;;;;;;;;4954321;29;20205;-70
2022/12/31 18:48:30;;;;;;;1999.90;999.90;;;;;;;;;;4954763;29;20354;-72
2022/12/31 18:51:16;;;;;;;1999.90;999.90;;;;;;;;;;4954393;28;20688;-72
2022/12/31 18:54:01;;;;;;;1999.90;999.90;;;;;;;;;;4954460;29;20292;-72
2022/12/31 18:56:48;;;;;;;1999.90;999.90;;;;;;;;;;4954151;28;20730;-72
2022/12/31 18:59:33;;;;;;;1999.90;999.90;;;;;;;;;;4954475;29;20213;-72
2022/12/31 19:02:18;;;;;;;1999.90;999.90;;;;;;;;;;4954248;28;20243;-71
2022/12/31 19:05:14;;;;;;;1999.90;999.90;;;;;;;;;;4954155;29;20228;-72
2022/12/31 19:08:00;;;;;;;1999.90;999.90;;;;;;;;;;4954284;29;20248;-72
2022/12/31 19:10:45;;;;;;;1999.90;999.90;;;;;;;;;;4954165;28;20802;-72
2022/12/31 19:13:31;;;;;;;1999.90;999.90;;;;;;;;;;4954008;29;20216;-71
2022/12/31 19:16:16;;;;;;;1999.90;999.90;;;;;;;;;;4953675;29;20231;-72
2022/12/31 19:19:01;;;;;;;1999.90;999.90;;;;;;;;;;4954100;29;20284;-71
2022/12/31 19:21:46;;;;;;;1999.90;999.90;;;;;;;;;;4954053;28;20236;-71
2022/12/31 19:24:31;;;;;;;1999.90;999.90;;;;;;;;;;4953796;29;20211;-72
2022/12/31 19:27:16;;;;;;;1999.90;999.90;;;;;;;;;;4953729;29;20216;-71
2022/12/31 19:30:03;;;;;;;1999.90;999.90;;;;;;;;;;4954034;29;20220;-71
2022/12/31 19:32:48;;;;;;;1999.90;999.90;;;;;;;;;;4953961;29;20617;-72
2022/12/31 19:35:33;;;;;;;1999.90;999.90;;;;;;;;;;4953471;29;20243;-72
2022/12/31 19:38:19;;;;;;;1999.90;999.90;;;;;;;;;;4953864;29;20208;-72
2022/12/31 19:41:04;;;;;;;1999.90;999.90;;;;;;;;;;4953914;28;20228;-72
2022/12/31 19:43:49;;;;;;;1999.90;999.90;;;;;;;;;;4953849;29;20603;-73
2022/12/31 19:46:35;;;;;;;1999.90;999.90;;;;;;;;;;4953674;29;20211;-72
2022/12/31 19:49:20;;;;;;;1999.90;999.90;;;;;;;;;;4953824;29;20583;-71
2022/12/31 19:52:05;;;;;;;1999.90;999.90;;;;;;;;;;4953828;28;20789;-71
2022/12/31 19:54:50;;;;;;;1999.90;999.90;;;;;;;;;;4953472;29;20214;-72
2022/12/31 19:57:35;;;;;;;1999.90;999.90;;;;;;;;;;4953938;29;20315;-72
2022/12/31 20:00:20;;;;;;;1999.90;999.90;;;;;;;;;;4953751;29;20216;-73
2022/12/31 20:03:07;;;;;;;1999.90;999.90;;;;;;;;;;4953727;29;20231;-72
2022/12/31 20:06:00;;;;;;;1999.90;999.90;;;;;;;;;;4953474;29;20207;-72
2022/12/31 20:08:45;;;;;;;1999.90;999.90;;;;;;;;;;4954498;28;20275;-72
2022/12/31 20:11:30;;;;;;;1999.90;999.90;;;;;;;;;;4957637;28;20235;-72
2022/12/31 20:14:15;;;;;;;1999.90;999.90;;;;;;;;;;4957350;29;20216;-71
2022/12/31 20:17:00;;;;;;;1999.90;999.90;;;;;;;;;;4957035;29;20610;-71
2022/12/31 20:19:46;;;;;;;1999.90;999.90;;;;;;;;;;4957333;29;20212;-71
2022/12/31 20:22:31;;;;;;;1999.90;999.90;;;;;;;;;;4957255;28;20243;-72
2022/12/31 20:25:16;;;;;;;1999.90;999.90;;;;;;;;;;4956954;29;20291;-71
2022/12/31 20:28:01;;;;;;;1999.90;999.90;;;;;;;;;;4957224;29;20239;-72
2022/12/31 20:30:46;;;;;;;1999.90;999.90;;;;;;;;;;4957180;28;20319;-72
2022/12/31 20:33:31;;;;;;;1999.90;999.90;;;;;;;;;;4957093;29;20208;-72
2022/12/31 20:36:17;;;;;;;1999.90;999.90;;;;;;;;;;4956728;29;20364;-73
2022/12/31 20:39:02;;;;;;;1999.90;999.90;;;;;;;;;;4957001;29;20208;-72
2022/12/31 20:41:47;;;;;;;1999.90;999.90;;;;;;;;;;4956976;28;20279;-72
2022/12/31 20:44:32;;;;;;;1999.90;999.90;;;;;;;;;;4956818;29;20703;-72